Hauptseite
METAR-TAF:

METAR-TAF

Flughäfen :

Kimmirut, Nunavut, Kanada

Breite: 62-51N, Länge: 069-53W, Höhe: 53 m

Beobachtung

Neuester Wetterbericht von vor 20 Stunden und 31 Minuten, um 20:00 UTC
Wind 7 kt aus Nord/Nordost
Temperatur -24°C
Luftfeuchtigkeit 69%
Luftdruck 1017 hPa
Sichtweite: 24.1 km
Durchbrochene Bewölkung in der Höhe von 3000 ft
Schnee leicht, Schneefegen

METAR: CYLC 242000Z 03007KT 15SM -SN DRSN BKN030 M24/M28 A3002 RMK SC7 0.2/1 TRACE LOOSE LASTSTFD OBS/NXT 271200Z SLP174

Zeit: 11:31 (16:31 UTC)


TAF: fehlend

Wetterbeobachtungen und Prognosen von mehr als 4000 Flughäfen (METAR und TAF Bericht).

Die verfügbaren Stationen werden durch gelbe und rote Markierungen auf der Karte dargestellt.

Führen Sie die Maus auf sie, um den Namen der Station zu sehen.

Darauf klicken, um die Beobachtung von Wetterbeobachtungen und Prognosen zu sehen.

Um die Karte zu ändern : klicken Sie auf den grünen Tasten mit einem schwarzen Kreuz Zum Vergrößern, auf den grünen Button mit einem Gedankenstrich zu verkleinern, oder auf die grünen Pfeile für benachbarte Karten.


METAR-TAF: